Time;durP1;ratioP1;P1;durP2;ratioP2;P2;SDS_P1;SDS_P2;PMS_P1;PMS_P2;Temp;Humidity;BMP_temperature;BMP_pressure;BME280_temperature;BME280_humidity;BME280_pressure;Samples;Min_cycle;Max_cycle;Signal;HPM_P1;HPM_P2
2022/10/29 00:00:00;;;;;;;0.50;0.50;;;;;;;15.71;65.38;97618.16;29395;232;63005;-66
2022/10/29 00:00:31;;;;;;;0.50;0.50;;;;;;;15.71;65.69;97614.63;29395;242;63014;-59
2022/10/29 00:01:04;;;;;;;0.40;0.40;;;;;;;15.72;65.45;97624.44;29395;241;63010;-60
2022/10/29 00:01:35;;;;;;;0.40;0.40;;;;;;;15.72;65.74;97617.03;29395;227;63014;-59
2022/10/29 00:02:06;;;;;;;0.40;0.40;;;;;;;15.74;65.80;97622.22;29395;227;63004;-58
2022/10/29 00:02:37;;;;;;;0.40;0.40;;;;;;;15.73;65.48;97613.19;29395;283;63009;-59
2022/10/29 00:03:09;;;;;;;0.40;0.40;;;;;;;15.73;65.46;97620.59;29394;203;64009;-58
2022/10/29 00:03:41;;;;;;;0.50;0.50;;;;;;;15.73;65.62;97623.31;29395;278;63009;-59
2022/10/29 00:04:12;;;;;;;0.40;0.40;;;;;;;15.72;65.83;97618.97;29394;196;64008;-58
2022/10/29 00:04:43;;;;;;;0.40;0.40;;;;;;;15.70;65.83;97616.53;29395;228;63009;-59
2022/10/29 00:05:14;;;;;;;0.40;0.40;;;;;;;15.71;65.91;97618.16;29395;209;63001;-69
2022/10/29 00:06:03;;;;;;;0.50;0.50;;;;;;;15.69;66.39;97619.56;29395;267;63009;-59
2022/10/29 00:06:35;;;;;;;0.40;0.40;;;;;;;15.65;66.11;97618.56;29395;218;63005;-59
2022/10/29 00:07:06;;;;;;;0.40;0.40;;;;;;;15.65;66.45;97624.03;29395;231;63009;-59
2022/10/29 00:07:37;;;;;;;0.43;0.43;;;;;;;15.63;66.23;97624.34;29395;220;63005;-59
2022/10/29 00:08:09;;;;;;;0.40;0.40;;;;;;;15.62;66.76;97624.66;29395;221;63009;-60
2022/10/29 00:08:41;;;;;;;0.40;0.40;;;;;;;15.62;66.50;97624.66;29395;211;63005;-60
2022/10/29 00:09:12;;;;;;;0.40;0.40;;;;;;;15.60;66.78;97621.41;29394;203;64013;-59
2022/10/29 00:09:44;;;;;;;0.30;0.30;;;;;;;15.59;66.66;97626.09;29395;207;63007;-59
2022/10/29 00:10:15;;;;;;;0.40;0.40;;;;;;;15.57;66.94;97622.06;29395;262;63009;-59
2022/10/29 00:10:46;;;;;;;0.50;0.50;;;;;;;15.56;66.91;97618.50;29395;202;63004;-59
2022/10/29 00:11:20;;;;;;;0.40;0.40;;;;;;;15.56;67.22;97625.88;29395;199;63009;-59
2022/10/29 00:11:51;;;;;;;0.40;0.40;;;;;;;15.55;66.87;97611.41;29395;285;63004;-59
2022/10/29 00:12:22;;;;;;;0.40;0.40;;;;;;;15.53;66.91;97616.37;29395;199;63018;-59
2022/10/29 00:12:54;;;;;;;0.40;0.40;;;;;;;15.52;66.92;97613.94;29395;199;63005;-59
2022/10/29 00:13:25;;;;;;;0.40;0.40;;;;;;;15.50;67.07;97616.16;29395;239;63009;-60
2022/10/29 00:13:59;;;;;;;0.40;0.40;;;;;;;15.48;66.96;97619.19;29395;219;63005;-59
2022/10/29 00:14:31;;;;;;;0.43;0.43;;;;;;;15.45;67.30;97619.00;29394;219;64013;-60
2022/10/29 00:15:03;;;;;;;0.40;0.40;;;;;;;15.43;67.07;97611.91;29395;361;63005;-60
2022/10/29 00:15:39;;;;;;;0.40;0.40;;;;;;;15.42;67.41;97614.94;29395;237;63009;-59
2022/10/29 00:16:15;;;;;;;0.40;0.40;;;;;;;15.39;67.24;97624.56;29395;213;63005;-59
2022/10/29 00:16:47;;;;;;;0.40;0.40;;;;;;;15.37;67.33;97626.81;29395;203;63009;-60
2022/10/29 00:17:18;;;;;;;0.40;0.40;;;;;;;15.35;67.68;97623.56;29395;209;63004;-59
2022/10/29 00:17:49;;;;;;;0.30;0.30;;;;;;;15.33;67.77;97625.78;29395;240;63009;-59
2022/10/29 00:18:21;;;;;;;0.40;0.40;;;;;;;15.31;67.51;97622.56;29395;215;63008;-59
2022/10/29 00:18:54;;;;;;;0.40;0.40;;;;;;;15.30;67.68;97620.94;29394;250;64013;-58
2022/10/29 00:19:26;;;;;;;0.40;0.40;;;;;;;15.30;67.68;97623.66;29395;227;63004;-59
2022/10/29 00:19:58;;;;;;;0.40;0.40;;;;;;;15.30;67.64;97618.19;29395;255;63009;-59
2022/10/29 00:20:29;;;;;;;0.40;0.40;;;;;;;15.30;67.90;97617.38;29395;375;63005;-59
2022/10/29 00:21:02;;;;;;;0.40;0.40;;;;;;;15.30;67.55;97606.44;29395;273;63015;-60
2022/10/29 00:21:34;;;;;;;0.40;0.40;;;;;;;15.30;67.40;97607.25;29395;202;63008;-60
2022/10/29 00:22:05;;;;;;;0.40;0.40;;;;;;;15.30;67.53;97612.72;29395;231;63009;-59
2022/10/29 00:22:37;;;;;;;0.40;0.40;;;;;;;15.31;67.35;97608.88;29395;196;63005;-59
2022/10/29 00:23:08;;;;;;;0.40;0.40;;;;;;;15.32;67.76;97606.97;29395;231;63009;-59
2022/10/29 00:23:40;;;;;;;0.40;0.40;;;;;;;15.31;67.43;97597.12;29395;198;63005;-59
2022/10/29 00:24:12;;;;;;;0.40;0.40;;;;;;;15.32;67.75;97599.56;29394;198;64013;-59
2022/10/29 00:24:43;;;;;;;0.40;0.40;;;;;;;15.32;67.35;97604.22;29395;225;63004;-59
2022/10/29 00:25:15;;;;;;;0.40;0.40;;;;;;;15.30;67.64;97596.31;29395;377;63009;-60
2022/10/29 00:25:46;;;;;;;0.40;0.40;;;;;;;15.29;67.35;97600.19;29395;272;63004;-59
2022/10/29 00:26:19;;;;;;;0.40;0.40;;;;;;;15.29;67.43;97611.12;29395;284;63009;-58
2022/10/29 00:26:51;;;;;;;0.40;0.40;;;;;;;15.30;67.39;97600.97;29395;226;63004;-60
2022/10/29 00:27:22;;;;;;;0.50;0.50;;;;;;;15.29;67.51;97597.44;29395;218;63009;-59
2022/10/29 00:27:55;;;;;;;0.40;0.40;;;;;;;15.30;67.28;97601.78;29395;215;63005;-59
2022/10/29 00:28:28;;;;;;;0.40;0.40;;;;;;;15.31;67.40;97597.94;29395;202;63009;-61
2022/10/29 00:28:59;;;;;;;0.40;0.40;;;;;;;15.33;66.95;97603.91;29395;209;63005;-59
2022/10/29 00:29:31;;;;;;;0.40;0.40;;;;;;;15.35;66.85;97604.44;29394;199;64013;-59
2022/10/29 00:30:03;;;;;;;0.40;0.40;;;;;;;15.36;66.96;97600.56;29395;196;63005;-58
2022/10/29 00:30:35;;;;;;;0.40;0.40;;;;;;;15.38;67.00;97603.81;29395;248;63009;-59
2022/10/29 00:31:10;;;;;;;0.40;0.40;;;;;;;15.38;66.57;97601.09;29395;328;63005;-59
2022/10/29 00:31:41;;;;;;;0.40;0.40;;;;;;;15.40;66.77;97606.25;29395;225;63009;-59
2022/10/29 00:32:13;;;;;;;0.40;0.40;;;;;;;15.39;66.36;97605.44;29394;197;64009;-60
2022/10/29 00:32:44;;;;;;;0.50;0.50;;;;;;;15.40;66.75;97596.12;29395;202;63009;-59
2022/10/29 00:33:17;;;;;;;0.40;0.40;;;;;;;15.42;66.43;97604.00;29395;233;63006;-70
2022/10/29 00:33:50;;;;;;;0.40;0.40;;;;;;;15.41;66.62;97597.72;29395;202;63016;-59
2022/10/29 00:34:21;;;;;;;0.40;0.40;;;;;;;15.42;66.58;97615.75;29395;223;63004;-59
2022/10/29 00:34:52;;;;;;;0.40;0.40;;;;;;;15.42;66.58;97604.81;29395;203;63009;-59
2022/10/29 00:35:25;;;;;;;0.40;0.40;;;;;;;15.42;66.65;97613.03;29395;231;63005;-60
2022/10/29 00:36:12;;;;;;;0.40;0.40;;;;;;;15.41;66.42;97608.66;29395;230;63009;-59
2022/10/29 00:36:43;;;;;;;0.40;0.40;;;;;;;15.43;66.65;97617.38;29395;209;63005;-59
2022/10/29 00:37:15;;;;;;;0.50;0.50;;;;;;;15.42;66.53;97609.47;29394;208;64013;-59
2022/10/29 00:37:46;;;;;;;0.40;0.40;;;;;;;15.41;66.62;97616.06;29395;226;63005;-59
2022/10/29 00:38:18;;;;;;;0.40;0.40;;;;;;;15.40;66.70;97618.00;29395;232;63009;-59
2022/10/29 00:38:49;;;;;;;0.50;0.50;;;;;;;15.41;66.76;97613.34;29395;199;63004;-59
2022/10/29 00:39:21;;;;;;;0.40;0.40;;;;;;;15.39;66.50;97610.91;29395;243;63009;-59
2022/10/29 00:39:52;;;;;;;0.45;0.45;;;;;;;15.38;66.56;97609.28;29394;313;64009;-60
2022/10/29 00:40:25;;;;;;;0.40;0.40;;;;;;;15.37;66.80;97607.66;29395;207;63009;-60
2022/10/29 00:40:59;;;;;;;0.50;0.50;;;;;;;15.41;66.63;97614.16;29395;209;63008;-60
2022/10/29 00:41:30;;;;;;;0.50;0.50;;;;;;;15.43;66.61;97613.84;29394;196;64013;-60
2022/10/29 00:42:03;;;;;;;0.40;0.40;;;;;;;15.45;66.40;97605.31;29395;196;63004;-59
2022/10/29 00:42:34;;;;;;;0.43;0.43;;;;;;;15.47;66.42;97605.84;29395;215;63009;-60
2022/10/29 00:43:16;;;;;;;0.40;0.40;;;;;;;15.50;66.30;97605.22;29395;208;63005;-59
2022/10/29 00:44:11;;;;;;;0.43;0.43;;;;;;;15.49;66.63;97606.34;29395;197;63009;-58
2022/10/29 00:44:43;;;;;;;0.50;0.50;;;;;;;15.43;66.40;97606.44;29395;367;63005;-60
2022/10/29 00:45:19;;;;;;;0.40;0.40;;;;;;;15.41;67.05;97605.94;29395;209;63009;-59
2022/10/29 00:45:59;;;;;;;0.40;0.40;;;;;;;15.42;66.94;97598.53;29395;220;63004;-59
2022/10/29 00:46:34;;;;;;;0.40;0.40;;;;;;;15.40;66.88;97604.31;29395;214;63009;-59
2022/10/29 00:47:36;;;;;;;3.37;3.17;;;;;;;15.45;67.42;97597.12;29394;250;64009;-58
2022/10/29 00:48:07;;;;;;;0.40;0.40;;;;;;;15.50;67.20;97599.75;29439;229;63024;-68
2022/10/29 00:48:46;;;;;;;0.40;0.40;;;;;;;15.49;67.30;97598.13;29394;220;64004;-66
2022/10/29 00:49:18;;;;;;;0.43;0.43;;;;;;;15.42;67.49;97596.62;29394;227;64014;-60
2022/10/29 00:49:58;;;;;;;0.40;0.40;;;;;;;15.35;67.75;97593.47;29395;216;63005;-59
2022/10/29 00:50:29;;;;;;;0.95;0.95;;;;;;;15.31;68.07;97592.47;29395;258;63009;-61
2022/10/29 00:51:06;;;;;;;0.40;0.40;;;;;;;15.30;68.30;97590.84;29395;214;63005;-60
2022/10/29 00:51:37;;;;;;;0.50;0.50;;;;;;;15.29;68.23;97605.63;29395;244;63009;-60
2022/10/29 00:52:10;;;;;;;0.50;0.50;;;;;;;15.27;68.53;97607.87;29395;203;63005;-59
2022/10/29 00:52:49;;;;;;;0.40;0.40;;;;;;;15.23;68.15;97601.44;29394;220;64013;-59
2022/10/29 00:53:24;;;;;;;0.50;0.50;;;;;;;15.20;68.66;97606.69;29395;196;63009;-59
2022/10/29 00:54:04;;;;;;;0.45;0.45;;;;;;;15.17;68.59;97610.84;29395;237;63009;-60
2022/10/29 00:54:39;;;;;;;0.40;0.40;;;;;;;15.12;69.16;97600.00;29395;239;63004;-60
2022/10/29 00:55:14;;;;;;;0.40;0.40;;;;;;;15.07;69.44;97608.31;29395;206;63009;-59
2022/10/29 00:55:46;;;;;;;0.40;0.40;;;;;;;15.04;69.61;97606.19;29394;219;64009;-58
2022/10/29 00:56:19;;;;;;;0.40;0.40;;;;;;;15.00;70.15;97596.97;29395;239;63008;-59
2022/10/29 00:56:59;;;;;;;0.40;0.40;;;;;;;14.94;70.61;97603.62;29395;212;63005;-58
2022/10/29 00:57:38;;;;;;;0.40;0.40;;;;;;;14.90;70.79;97608.13;29395;209;63009;-59
2022/10/29 00:58:10;;;;;;;0.40;0.40;;;;;;;14.86;70.96;97612.56;29395;234;63005;-58
2022/10/29 00:58:43;;;;;;;0.40;0.40;;;;;;;14.84;71.23;97603.84;29395;329;63009;-58
2022/10/29 00:59:16;;;;;;;0.50;0.50;;;;;;;14.80;72.11;97614.56;29395;318;63005;-59
2022/10/29 00:59:49;;;;;;;0.40;0.40;;;;;;;14.78;72.27;97616.00;29395;248;63009;-59
2022/10/29 01:00:21;;;;;;;0.47;0.47;;;;;;;14.75;72.58;97617.41;29395;282;63005;-59
2022/10/29 01:00:52;;;;;;;0.40;0.40;;;;;;;14.72;72.51;97618.81;29394;218;64013;-58
2022/10/29 01:01:23;;;;;;;0.40;0.40;;;;;;;14.70;72.15;97618.31;29395;211;63004;-59
2022/10/29 01:01:55;;;;;;;0.40;0.40;;;;;;;14.70;72.61;97612.84;29395;216;63018;-58
2022/10/29 01:02:28;;;;;;;0.50;0.50;;;;;;;14.66;72.46;97617.28;29395;199;63004;-59
2022/10/29 01:02:59;;;;;;;0.40;0.40;;;;;;;14.65;72.02;97612.94;29395;274;63009;-59
2022/10/29 01:03:31;;;;;;;0.50;0.50;;;;;;;14.65;71.99;97618.41;29395;217;63004;-59
2022/10/29 01:04:03;;;;;;;0.40;0.40;;;;;;;14.63;71.88;97615.16;29395;275;63008;-59
2022/10/29 01:04:36;;;;;;;0.50;0.50;;;;;;;14.63;71.98;97615.16;29395;266;63005;-59
2022/10/29 01:05:10;;;;;;;0.40;0.40;;;;;;;14.61;72.31;97617.38;29395;248;63009;-59
2022/10/29 01:05:43;;;;;;;0.50;0.50;;;;;;;14.61;72.77;97617.38;29395;219;63005;-58
2022/10/29 01:06:14;;;;;;;0.50;0.50;;;;;;;14.58;72.48;97612.50;29394;268;64002;-60
2022/10/29 01:06:46;;;;;;;0.50;0.50;;;;;;;14.58;72.23;97615.25;29395;237;63008;-59
2022/10/29 01:07:19;;;;;;;0.40;0.40;;;;;;;14.56;72.50;97616.66;29395;224;63009;-59
2022/10/29 01:07:50;;;;;;;0.40;0.40;;;;;;;14.54;72.14;97616.97;29395;360;63009;-59
2022/10/29 01:08:22;;;;;;;0.43;0.43;;;;;;;14.55;72.35;97618.59;29395;214;63009;-58
2022/10/29 01:08:53;;;;;;;0.50;0.50;;;;;;;14.54;73.20;97622.44;29395;206;63004;-60
2022/10/29 01:09:25;;;;;;;0.40;0.40;;;;;;;14.55;73.06;97613.13;29395;198;63016;-59
2022/10/29 01:09:56;;;;;;;0.50;0.50;;;;;;;14.57;72.75;97612.81;29395;216;63004;-59
2022/10/29 01:11:15;;;;;;;0.40;0.40;;;;;;;14.55;72.68;97613.13;29395;355;63009;-59
2022/10/29 01:12:50;;;;;;;0.50;0.50;;;;;;;14.53;72.78;97607.16;29394;243;64009;-59
2022/10/29 01:14:00;;;;;;;0.40;0.40;;;;;;;14.57;72.61;97604.62;29395;216;63009;-60
2022/10/29 01:15:02;;;;;;;0.50;0.50;;;;;;;14.56;72.88;97609.28;29395;244;63005;-59
2022/10/29 01:16:02;;;;;;;0.50;0.50;;;;;;;14.57;72.95;97610.06;29395;202;63009;-59
2022/10/29 01:17:20;;;;;;;0.40;0.40;;;;;;;14.56;73.28;97595.62;29394;244;64009;-59
2022/10/29 01:18:20;;;;;;;0.40;0.40;;;;;;;14.55;72.67;97602.22;29395;246;63009;-58
2022/10/29 01:19:33;;;;;;;0.40;0.40;;;;;;;14.58;72.59;97598.03;29395;226;63004;-59
2022/10/29 01:20:53;;;;;;;0.40;0.40;;;;;;;14.58;72.66;97596.12;29395;210;63009;-58
2022/10/29 01:21:48;;;;;;;0.40;0.40;;;;;;;14.61;72.44;97600.19;29394;281;64005;-59
2022/10/29 01:22:47;;;;;;;0.40;0.40;;;;;;;14.61;72.55;97595.53;29394;222;64013;-60
2022/10/29 01:23:47;;;;;;;0.50;0.50;;;;;;;14.64;72.18;97600.37;29395;236;63005;-59
2022/10/29 01:24:59;;;;;;;0.45;0.45;;;;;;;14.68;72.07;97595.94;29394;234;64013;-59
2022/10/29 01:26:31;;;;;;;0.43;0.43;;;;;;;14.72;71.79;97602.44;29416;205;64009;-60
2022/10/29 01:27:50;;;;;;;0.40;0.40;;;;;;;14.78;71.45;97594.94;29395;204;63009;-59
2022/10/29 01:29:07;;;;;;;0.40;0.40;;;;;;;14.82;70.79;97589.69;29395;223;63005;-59
2022/10/29 01:30:22;;;;;;;0.50;0.50;;;;;;;14.88;71.12;97589.28;29395;311;63009;-68
2022/10/29 01:31:37;;;;;;;0.50;0.50;;;;;;;14.94;70.39;97592.72;29394;246;64009;-59
2022/10/29 01:32:35;;;;;;;0.40;0.40;;;;;;;14.96;70.86;97588.56;29395;221;63009;-60
2022/10/29 01:33:24;;;;;;;0.50;0.50;;;;;;;14.95;71.33;97583.41;29395;212;63004;-69
2022/10/29 01:34:15;;;;;;;0.40;0.40;;;;;;;14.96;70.45;97585.03;29395;224;63008;-59
2022/10/29 01:35:36;;;;;;;0.45;0.45;;;;;;;14.97;70.65;97581.97;29377;363;125014;-59
2022/10/29 01:36:22;;;;;;;0.40;0.40;;;;;;;14.98;70.57;97580.06;29371;218;64013;-60
2022/10/29 01:37:11;;;;;;;0.40;0.40;;;;;;;14.98;70.79;97591.00;29395;299;63005;-59
2022/10/29 01:38:15;;;;;;;0.50;0.50;;;;;;;14.99;71.11;97584.41;29395;202;63009;-60
2022/10/29 01:39:00;;;;;;;0.50;0.50;;;;;;;14.98;70.74;97578.13;29417;291;63004;-60
2022/10/29 01:39:54;;;;;;;0.50;0.50;;;;;;;14.98;71.06;97582.78;29395;210;63012;-59
2022/10/29 01:40:55;;;;;;;0.40;0.40;;;;;;;14.97;70.42;97581.16;29395;216;63004;-59
2022/10/29 01:41:40;;;;;;;0.50;0.50;;;;;;;14.97;70.88;97583.91;29394;250;64013;-60
2022/10/29 01:42:37;;;;;;;0.50;0.50;;;;;;;14.99;70.70;97579.75;29395;252;63005;-61
2022/10/29 01:43:32;;;;;;;0.50;0.50;;;;;;;14.99;70.97;97584.41;29395;204;63009;-59
2022/10/29 01:44:28;;;;;;;0.50;0.50;;;;;;;15.00;71.37;97588.75;29395;274;63019;-59
2022/10/29 01:45:37;;;;;;;0.40;0.40;;;;;;;14.97;71.59;97587.44;29395;200;63005;-59
2022/10/29 01:46:20;;;;;;;0.50;0.50;;;;;;;14.96;71.69;97579.56;29395;206;63009;-60
2022/10/29 01:46:56;;;;;;;0.50;0.50;;;;;;;14.94;71.82;97587.25;29394;197;64009;-59
2022/10/29 01:47:35;;;;;;;0.40;0.40;;;;;;;14.93;72.39;97585.63;29395;228;63009;-68
2022/10/29 01:48:18;;;;;;;0.40;0.40;;;;;;;14.89;72.94;97593.66;29395;257;63004;-60
2022/10/29 01:48:56;;;;;;;0.40;0.40;;;;;;;14.86;72.50;97586.06;29395;200;63009;-69
2022/10/29 01:49:37;;;;;;;0.40;0.40;;;;;;;14.86;73.13;97577.03;29395;276;63005;-60
2022/10/29 01:50:13;;;;;;;0.40;0.40;;;;;;;14.82;72.89;97579.56;29417;199;63009;-60
2022/10/29 01:50:49;;;;;;;0.40;0.40;;;;;;;14.84;72.42;97587.47;29395;267;63005;-68
2022/10/29 01:51:30;;;;;;;0.40;0.40;;;;;;;14.82;72.48;97585.03;29395;237;63024;-61
2022/10/29 01:52:02;;;;;;;;;;;;;;;14.82;72.48;97579.56;29996;982;6000;-59
2022/10/29 01:52:38;;;;;;;0.40;0.40;;;;;;;14.84;72.24;97576.53;29400;202;63000;-71
2022/10/29 01:53:10;;;;;;;0.50;0.50;;;;;;;14.85;72.32;97578.97;29394;220;64013;-61
2022/10/29 01:53:41;;;;;;;0.40;0.40;;;;;;;14.85;72.20;97578.16;29394;338;64009;-58
2022/10/29 01:54:13;;;;;;;0.40;0.40;;;;;;;14.84;72.29;97576.53;29395;393;63009;-60
2022/10/29 01:54:46;;;;;;;0.40;0.40;;;;;;;14.83;72.14;97573.00;29395;236;63004;-68
2022/10/29 01:55:28;;;;;;;0.40;0.40;;;;;;;14.84;72.27;97577.34;29395;251;63020;-68
2022/10/29 01:56:00;;;;;;;0.40;0.40;;;;;;;14.85;71.81;97573.50;29395;228;63014;-58
2022/10/29 01:56:31;;;;;;;0.40;0.40;;;;;;;14.89;71.87;97568.25;29395;209;63009;-60
2022/10/29 01:57:03;;;;;;;0.40;0.40;;;;;;;14.88;72.35;97566.62;29395;300;63005;-59
2022/10/29 01:57:36;;;;;;;0.40;0.40;;;;;;;14.89;71.91;97568.25;29395;209;63009;-59
2022/10/29 01:58:11;;;;;;;0.40;0.40;;;;;;;14.90;71.86;97569.87;29394;209;64009;-59
2022/10/29 01:58:51;;;;;;;0.40;0.40;;;;;;;14.90;71.87;97561.66;29395;202;63009;-60
2022/10/29 01:59:26;;;;;;;0.40;0.40;;;;;;;14.92;71.69;97568.41;29439;294;63005;-61
2022/10/29 02:00:10;;;;;;;0.40;0.40;;;;;;;14.93;71.83;97569.22;29395;214;63009;-61
2022/10/29 02:01:26;;;;;;;0.40;0.40;;;;;;;14.92;71.64;97557.50;29395;205;63010;-59
2022/10/29 02:02:55;;;;;;;0.40;0.40;;;;;;;14.91;71.92;97566.00;29395;315;63009;-60
2022/10/29 02:04:20;;;;;;;0.50;0.50;;;;;;;14.94;71.69;97559.91;29394;196;64008;-59
2022/10/29 02:05:11;;;;;;;0.40;0.40;;;;;;;14.94;71.62;97562.66;29395;263;63009;-59
2022/10/29 02:06:23;;;;;;;0.50;0.50;;;;;;;14.91;71.34;97561.34;29417;197;63011;-60
2022/10/29 02:07:19;;;;;;;0.50;0.50;;;;;;;14.91;71.72;97566.00;29417;271;63005;-58
2022/10/29 02:08:11;;;;;;;0.40;0.40;;;;;;;14.91;71.44;97561.34;29394;249;64013;-60
2022/10/29 02:09:20;;;;;;;0.40;0.40;;;;;;;14.92;70.96;97559.41;29416;218;64009;-59
2022/10/29 02:10:27;;;;;;;0.40;0.40;;;;;;;14.93;71.19;97563.75;29395;214;63004;-59
2022/10/29 02:11:19;;;;;;;0.40;0.40;;;;;;;14.93;71.06;97558.28;29395;246;63008;-59
2022/10/29 02:11:58;;;;;;;0.47;0.47;;;;;;;14.93;70.82;97558.28;29394;236;64005;-59
2022/10/29 02:12:39;;;;;;;0.40;0.40;;;;;;;14.95;70.78;97558.81;29395;221;63009;-59
2022/10/29 02:13:14;;;;;;;0.40;0.40;;;;;;;14.94;70.94;97546.25;29417;228;63005;-58
2022/10/29 02:14:05;;;;;;;0.40;0.40;;;;;;;14.94;70.87;97558.00;29394;220;64013;-59
2022/10/29 02:15:03;;;;;;;0.40;0.40;;;;;;;14.96;70.38;97552.22;29395;224;63005;-59
2022/10/29 02:15:38;;;;;;;0.40;0.40;;;;;;;14.99;70.52;97559.81;29395;291;63009;-58
2022/10/29 02:16:11;;;;;;;0.40;0.40;;;;;;;15.00;70.24;97561.44;29395;223;63004;-59
2022/10/29 02:16:43;;;;;;;0.50;0.50;;;;;;;15.02;70.14;97551.00;29395;209;63009;-59
2022/10/29 02:17:18;;;;;;;0.40;0.40;;;;;;;15.02;69.95;97549.09;29395;297;63004;-59
2022/10/29 02:17:50;;;;;;;0.40;0.40;;;;;;;15.05;70.22;97550.41;29395;226;63009;-60
2022/10/29 02:18:21;;;;;;;0.40;0.40;;;;;;;15.07;69.69;97550.91;29394;218;64008;-60
2022/10/29 02:18:53;;;;;;;0.40;0.40;;;;;;;15.08;69.75;97544.31;29395;367;63025;-60
2022/10/29 02:19:32;;;;;;;0.40;0.40;;;;;;;15.09;69.55;97546.75;29394;203;64009;-59
2022/10/29 02:20:07;;;;;;;0.40;0.40;;;;;;;15.15;69.77;97547.47;29395;202;63009;-60
2022/10/29 02:20:43;;;;;;;0.50;0.50;;;;;;;15.15;70.06;97544.72;29395;233;63005;-60
2022/10/29 02:21:16;;;;;;;0.40;0.40;;;;;;;15.15;69.89;97539.25;29394;244;64013;-60
2022/10/29 02:21:50;;;;;;;0.50;0.50;;;;;;;15.17;70.24;97541.69;29395;313;63005;-61
2022/10/29 02:22:22;;;;;;;0.40;0.40;;;;;;;15.15;70.63;97533.78;29395;283;63009;-60
2022/10/29 02:22:55;;;;;;;0.40;0.40;;;;;;;15.13;71.05;97540.69;29395;290;63009;-69
2022/10/29 02:23:27;;;;;;;0.40;0.40;;;;;;;15.12;70.68;97539.87;29395;369;63009;-60
2022/10/29 02:23:59;;;;;;;0.40;0.40;;;;;;;15.10;70.64;97542.09;29395;227;63004;-60
2022/10/29 02:24:30;;;;;;;0.40;0.40;;;;;;;15.07;71.04;97539.97;29395;202;63014;-61
2022/10/29 02:25:03;;;;;;;0.40;0.40;;;;;;;15.05;71.33;97539.47;29395;199;63006;-59
2022/10/29 02:25:35;;;;;;;0.40;0.40;;;;;;;15.03;71.17;97538.97;29395;196;63009;-61
2022/10/29 02:26:10;;;;;;;0.50;0.50;;;;;;;15.02;71.29;97537.34;29395;335;63004;-60
2022/10/29 02:26:41;;;;;;;0.40;0.40;;;;;;;14.99;71.65;97532.50;29394;197;64014;-60
2022/10/29 02:27:12;;;;;;;0.50;0.50;;;;;;;14.98;71.18;97536.34;29395;305;63005;-59
2022/10/29 02:27:43;;;;;;;0.77;0.77;;;;;;;14.99;71.39;97535.22;29395;207;63009;-59
2022/10/29 02:28:15;;;;;;;0.40;0.40;;;;;;;14.99;71.19;97540.69;29395;258;63005;-68
2022/10/29 02:28:46;;;;;;;0.40;0.40;;;;;;;14.98;71.42;97536.34;29395;265;63009;-60
2022/10/29 02:29:17;;;;;;;0.40;0.40;;;;;;;14.98;71.02;97533.59;29395;317;63005;-71
2022/10/29 02:29:49;;;;;;;0.40;0.40;;;;;;;14.99;71.33;97536.03;29395;196;63009;-59
2022/10/29 02:30:21;;;;;;;0.40;0.40;;;;;;;14.95;71.22;97535.03;29395;377;63005;-69
2022/10/29 02:30:52;;;;;;;0.40;0.40;;;;;;;14.99;71.11;97535.22;29394;202;64013;-60
2022/10/29 02:31:24;;;;;;;0.40;0.40;;;;;;;14.99;70.99;97540.69;29394;203;64009;-60
2022/10/29 02:31:56;;;;;;;0.40;0.40;;;;;;;15.00;70.87;97543.12;29395;197;63009;-60
2022/10/29 02:32:28;;;;;;;0.40;0.40;;;;;;;15.01;70.85;97533.00;29395;371;63004;-60
2022/10/29 02:32:59;;;;;;;0.50;0.50;;;;;;;15.00;71.13;97531.37;29395;237;63008;-60
2022/10/29 02:33:31;;;;;;;0.40;0.40;;;;;;;14.99;71.03;97530.56;29395;202;63004;-60
2022/10/29 02:34:02;;;;;;;0.40;0.40;;;;;;;14.98;71.21;97533.59;29395;219;63009;-67
2022/10/29 02:34:33;;;;;;;0.45;0.45;;;;;;;14.99;70.96;97532.50;29395;198;63005;-60
2022/10/29 02:35:06;;;;;;;0.40;0.40;;;;;;;15.01;71.15;97527.53;29395;250;63019;-59
2022/10/29 02:35:37;;;;;;;0.40;0.40;;;;;;;14.99;70.88;97535.22;29395;282;63011;-60
2022/10/29 02:36:09;;;;;;;0.50;0.50;;;;;;;14.97;71.14;97531.97;29395;207;63009;-60
2022/10/29 02:36:40;;;;;;;0.40;0.40;;;;;;;14.95;71.25;97535.03;29394;196;64009;-61
2022/10/29 02:37:12;;;;;;;0.40;0.40;;;;;;;14.94;71.39;97533.41;29395;202;63009;-59
2022/10/29 02:37:43;;;;;;;0.50;0.50;;;;;;;14.94;70.95;97533.41;29395;224;63004;-59
2022/10/29 02:38:15;;;;;;;0.40;0.40;;;;;;;14.93;71.34;97536.44;29394;217;64013;-59
2022/10/29 02:38:46;;;;;;;0.40;0.40;;;;;;;14.91;71.34;97533.19;29395;218;63004;-60
2022/10/29 02:39:17;;;;;;;0.40;0.40;;;;;;;14.92;71.48;97540.28;29395;221;63009;-59
2022/10/29 02:39:48;;;;;;;0.50;0.50;;;;;;;14.91;71.44;97536.75;29395;220;63004;-59
2022/10/29 02:40:21;;;;;;;0.40;0.40;;;;;;;14.90;71.69;97548.78;29395;199;63016;-60
2022/10/29 02:40:52;;;;;;;0.40;0.40;;;;;;;14.89;71.37;97530.81;29395;251;63005;-59
2022/10/29 02:41:24;;;;;;;0.40;0.40;;;;;;;14.89;71.65;97536.25;29395;212;63009;-59
2022/10/29 02:41:55;;;;;;;0.40;0.40;;;;;;;14.89;71.56;97540.91;29394;267;64009;-58
2022/10/29 02:42:30;;;;;;;0.50;0.50;;;;;;;14.90;71.62;97542.53;29395;236;63009;-59
2022/10/29 02:43:01;;;;;;;0.40;0.40;;;;;;;14.89;71.76;97530.81;29395;330;63005;-60
2022/10/29 02:43:33;;;;;;;0.50;0.50;;;;;;;14.90;71.46;97531.63;29395;207;63009;-61
2022/10/29 02:44:04;;;;;;;0.43;0.43;;;;;;;14.92;71.25;97537.56;29395;200;63005;-59
2022/10/29 02:44:35;;;;;;;0.40;0.40;;;;;;;14.93;71.51;97536.44;29395;218;63009;-60
2022/10/29 02:45:07;;;;;;;0.40;0.40;;;;;;;14.92;71.26;97523.87;29394;202;64009;-60
2022/10/29 02:45:38;;;;;;;0.50;0.50;;;;;;;14.93;71.43;97530.97;29395;207;63009;-60
2022/10/29 02:46:16;;;;;;;0.40;0.40;;;;;;;14.93;71.24;97530.97;29395;204;63004;-59
2022/10/29 02:46:47;;;;;;;0.40;0.40;;;;;;;14.93;71.11;97529.06;29395;213;63009;-59
2022/10/29 02:47:18;;;;;;;0.40;0.40;;;;;;;14.95;71.06;97531.47;29394;245;64004;-60
2022/10/29 02:47:50;;;;;;;0.40;0.40;;;;;;;14.95;71.30;97520.56;29395;223;63008;-60
2022/10/29 02:48:21;;;;;;;0.40;0.40;;;;;;;14.96;71.02;97524.91;29395;221;63005;-59
2022/10/29 02:48:52;;;;;;;0.40;0.40;;;;;;;14.96;70.94;97522.16;29394;226;64014;-59
2022/10/29 02:49:24;;;;;;;0.40;0.40;;;;;;;14.97;70.86;97521.06;29395;209;63005;-60
2022/10/29 02:49:55;;;;;;;0.50;0.50;;;;;;;14.97;70.80;97526.53;29395;202;63009;-59
2022/10/29 02:50:26;;;;;;;0.40;0.40;;;;;;;14.97;70.65;97519.13;29394;372;64009;-59
2022/10/29 02:50:57;;;;;;;0.50;0.50;;;;;;;14.98;70.62;97522.69;29395;333;63018;-59
2022/10/29 02:51:28;;;;;;;0.47;0.47;;;;;;;14.98;70.48;97528.12;29395;231;63005;-59
2022/10/29 02:52:00;;;;;;;0.43;0.43;;;;;;;14.99;70.73;97529.75;29395;303;63009;-59
2022/10/29 02:52:31;;;;;;;0.40;0.40;;;;;;;15.01;70.63;97513.88;29394;197;64009;-59
2022/10/29 02:53:02;;;;;;;0.40;0.40;;;;;;;15.01;70.41;97522.06;29395;203;63009;-58
2022/10/29 02:53:33;;;;;;;0.50;0.50;;;;;;;15.02;70.21;97524.50;29394;202;64009;-58
2022/10/29 02:54:05;;;;;;;0.50;0.50;;;;;;;15.01;70.06;97522.06;29394;205;64013;-59
2022/10/29 02:54:37;;;;;;;0.40;0.40;;;;;;;15.01;70.23;97517.41;29394;234;64009;-59
2022/10/29 02:55:09;;;;;;;0.40;0.40;;;;;;;15.03;70.37;97525.31;29395;354;63008;-59
2022/10/29 02:55:41;;;;;;;0.40;0.40;;;;;;;15.03;70.19;97509.72;29395;198;63004;-60
2022/10/29 02:56:12;;;;;;;0.40;0.40;;;;;;;15.05;70.38;97523.06;29395;234;63009;-58
2022/10/29 02:56:44;;;;;;;0.40;0.40;;;;;;;15.06;70.08;97525.50;29395;203;63005;-60
2022/10/29 02:57:15;;;;;;;0.40;0.40;;;;;;;15.08;70.24;97522.47;29395;269;63009;-59
2022/10/29 02:57:46;;;;;;;0.40;0.40;;;;;;;15.08;69.95;97514.25;29395;301;63005;-58
2022/10/29 02:58:17;;;;;;;0.40;0.40;;;;;;;15.10;70.26;97520.22;29395;266;63009;-68
2022/10/29 02:58:49;;;;;;;0.40;0.40;;;;;;;15.11;70.22;97516.37;29395;206;63005;-58
2022/10/29 02:59:20;;;;;;;0.50;0.50;;;;;;;15.13;70.09;97516.09;29395;341;63009;-59
2022/10/29 02:59:51;;;;;;;0.43;0.43;;;;;;;15.13;70.25;97525.09;29394;214;64009;-59
2022/10/29 03:00:22;;;;;;;0.40;0.40;;;;;;;15.14;70.22;97515.78;29395;232;63009;-59
2022/10/29 03:00:54;;;;;;;0.40;0.40;;;;;;;15.15;69.97;97517.41;29395;222;63007;-58
2022/10/29 03:01:25;;;;;;;0.40;0.40;;;;;;;15.17;70.22;97514.34;29395;197;63009;-60